Time;durP1;ratioP1;P1;durP2;ratioP2;P2;SDS_P1;SDS_P2;PMS_P1;PMS_P2;Temp;Humidity;BMP_temperature;BMP_pressure;BME280_temperature;BME280_humidity;BME280_pressure;Samples;Min_cycle;Max_cycle;Signal;HPM_P1;HPM_P2
2023/09/08 00:00:40;;;;;;;11.30;5.80;;;14.00;99.90;;;;;;5051473;28;20175;-72
2023/09/08 00:03:06;;;;;;;10.03;5.33;;;14.00;99.90;;;;;;5051849;28;20183;-73
2023/09/08 00:05:31;;;;;;;11.27;5.90;;;14.00;99.90;;;;;;5051691;28;20248;-73
2023/09/08 00:07:57;;;;;;;10.27;5.60;;;13.90;99.90;;;;;;5049829;28;20880;-73
2023/09/08 00:10:23;;;;;;;13.60;6.30;;;13.90;99.90;;;;;;5051645;28;20191;-73
2023/09/08 00:12:49;;;;;;;10.67;5.90;;;13.80;99.90;;;;;;5051527;28;20179;-73
2023/09/08 00:15:15;;;;;;;11.50;5.77;;;13.70;99.90;;;;;;5051531;28;20226;-73
2023/09/08 00:17:40;;;;;;;9.87;5.80;;;13.80;99.90;;;;;;5050716;28;20295;-73
2023/09/08 00:20:09;;;;;;;9.33;5.63;;;13.80;99.90;;;;;;5051538;28;20172;-73
2023/09/08 00:22:38;;;;;;;11.87;6.23;;;13.70;99.90;;;;;;5051487;28;20335;-73
2023/09/08 00:25:04;;;;;;;10.67;6.13;;;13.70;99.90;;;;;;5049913;28;20203;-73
2023/09/08 00:27:31;;;;;;;8.67;5.43;;;13.70;99.90;;;;;;5050173;28;20534;-73
2023/09/08 00:29:56;;;;;;;14.10;5.87;;;13.60;99.90;;;;;;5051295;28;20273;-73
2023/09/08 00:32:22;;;;;;;8.93;5.63;;;13.60;99.90;;;;;;5051209;28;20701;-72
2023/09/08 00:34:47;;;;;;;14.97;5.63;;;13.60;99.90;;;;;;5051118;28;20700;-73
2023/09/08 00:37:13;;;;;;;9.47;5.20;;;13.60;99.90;;;;;;5050344;28;20218;-73
2023/09/08 00:39:38;;;;;;;8.70;5.83;;;13.50;99.90;;;;;;5050604;28;20266;-73
2023/09/08 00:42:04;;;;;;;9.90;5.90;;;13.50;99.90;;;;;;5051125;28;20641;-73
2023/09/08 00:44:30;;;;;;;10.73;6.17;;;13.50;99.90;;;;;;5051009;28;20198;-73
2023/09/08 00:46:56;;;;;;;18.47;6.80;;;13.50;99.90;;;;;;5050493;28;20190;-72
2023/09/08 00:49:22;;;;;;;11.33;5.60;;;13.40;99.90;;;;;;5050946;28;20669;-73
2023/09/08 00:51:48;;;;;;;9.40;5.47;;;13.40;99.90;;;;;;5050933;28;20187;-73
2023/09/08 00:54:14;;;;;;;9.90;6.07;;;13.40;99.90;;;;;;5050790;28;20189;-72
2023/09/08 00:56:40;;;;;;;11.57;6.03;;;13.30;99.90;;;;;;5050635;28;20202;-72
2023/09/08 00:59:07;;;;;;;13.03;6.07;;;13.30;99.90;;;;;;5050294;28;20171;-72
2023/09/08 01:01:34;;;;;;;12.67;5.90;;;13.20;99.90;;;;;;5050862;28;20258;-73
2023/09/08 01:04:00;;;;;;;9.10;5.97;;;13.20;99.90;;;;;;5050913;28;20225;-72
2023/09/08 01:06:27;;;;;;;12.47;5.87;;;13.20;99.90;;;;;;5050723;28;20556;-73
2023/09/08 01:08:54;;;;;;;11.03;5.77;;;13.20;99.90;;;;;;5049935;28;20183;-72
2023/09/08 01:11:20;;;;;;;7.97;5.50;;;13.10;99.90;;;;;;5050701;28;20187;-72
2023/09/08 01:13:45;;;;;;;13.37;6.50;;;13.10;99.90;;;;;;5050738;28;20194;-73
2023/09/08 01:16:11;;;;;;;10.07;6.00;;;13.10;99.90;;;;;;5050465;28;20210;-72
2023/09/08 01:18:37;;;;;;;9.77;6.03;;;13.00;99.90;;;;;;5049891;28;20159;-72
2023/09/08 01:21:22;;;;;;;12.37;6.03;;;13.00;99.90;;;;;;5050696;28;20175;-72
2023/09/08 01:24:31;;;;;;;10.40;5.83;;;13.00;99.90;;;;;;5050502;28;20164;-73
2023/09/08 01:26:57;;;;;;;11.87;6.20;;;13.00;99.90;;;;;;5049191;28;20278;-72
2023/09/08 01:29:25;;;;;;;12.23;6.47;;;13.00;99.90;;;;;;5050542;28;20606;-73
2023/09/08 01:31:51;;;;;;;9.53;6.00;;;13.00;99.90;;;;;;5050556;28;20183;-73
2023/09/08 01:34:18;;;;;;;10.93;6.10;;;12.90;99.90;;;;;;5050438;28;20187;-72
2023/09/08 01:36:45;;;;;;;10.93;5.87;;;12.80;99.90;;;;;;5049928;28;20239;-73
2023/09/08 01:39:11;;;;;;;10.90;6.37;;;12.80;99.90;;;;;;5052888;28;20596;-72
2023/09/08 01:41:36;;;;;;;10.43;6.07;;;12.80;99.90;;;;;;5054415;28;20254;-72
2023/09/08 01:44:07;;;;;;;12.33;5.80;;;12.70;99.90;;;;;;5054386;28;20652;-72
2023/09/08 01:46:33;;;;;;;10.87;6.20;;;12.80;99.90;;;;;;5054370;28;20582;-73
2023/09/08 01:48:59;;;;;;;15.13;7.00;;;12.90;99.90;;;;;;5053800;28;20690;-72
2023/09/08 01:51:25;;;;;;;9.57;6.37;;;12.80;99.90;;;;;;5054290;28;20191;-72
2023/09/08 01:53:50;;;;;;;12.07;5.60;;;12.80;99.90;;;;;;5054175;28;20248;-73
2023/09/08 01:56:16;;;;;;;9.90;6.50;;;12.80;99.90;;;;;;5054088;28;20276;-72
2023/09/08 01:58:41;;;;;;;8.67;5.80;;;12.70;99.90;;;;;;5053496;28;20575;-72
2023/09/08 02:01:07;;;;;;;10.63;6.17;;;12.70;99.90;;;;;;5054215;28;20667;-72
2023/09/08 02:03:32;;;;;;;11.93;6.37;;;12.70;99.90;;;;;;5054070;28;20652;-73
2023/09/08 02:05:58;;;;;;;9.37;6.30;;;12.70;99.90;;;;;;5054067;28;20629;-72
2023/09/08 02:08:24;;;;;;;18.33;6.80;;;12.80;99.90;;;;;;5053209;28;20195;-71
2023/09/08 02:10:49;;;;;;;9.63;5.50;;;12.80;99.90;;;;;;5054017;28;20293;-72
2023/09/08 02:13:15;;;;;;;11.00;6.93;;;12.70;99.90;;;;;;5053974;28;20262;-72
2023/09/08 02:15:40;;;;;;;11.80;7.30;;;12.70;99.90;;;;;;5053686;28;20210;-72
2023/09/08 02:18:06;;;;;;;15.10;6.80;;;12.60;99.90;;;;;;5051755;28;20298;-72
2023/09/08 02:20:32;;;;;;;16.03;6.80;;;12.60;99.90;;;;;;5052578;28;20187;-73
2023/09/08 02:23:03;;;;;;;9.90;6.50;;;12.60;99.90;;;;;;5053655;28;20179;-72
2023/09/08 02:25:29;;;;;;;11.93;6.60;;;12.60;99.90;;;;;;5053521;28;20198;-72
2023/09/08 02:27:54;;;;;;;10.70;6.80;;;12.50;99.90;;;;;;5052971;28;20187;-72
2023/09/08 02:30:20;;;;;;;11.73;6.93;;;12.50;99.90;;;;;;5053525;28;20202;-72
2023/09/08 02:32:45;;;;;;;10.17;6.90;;;12.40;99.90;;;;;;5053581;28;20179;-73
2023/09/08 02:35:11;;;;;;;16.83;7.50;;;12.40;99.90;;;;;;5053454;28;20203;-72
2023/09/08 02:37:36;;;;;;;12.20;6.17;;;12.40;99.90;;;;;;5052651;28;20211;-72
2023/09/08 02:40:03;;;;;;;10.53;6.07;;;12.40;99.90;;;;;;5053294;28;20175;-72
2023/09/08 02:42:29;;;;;;;9.87;6.60;;;12.40;99.90;;;;;;5053348;28;20617;-73
2023/09/08 02:44:54;;;;;;;16.53;7.17;;;12.40;99.90;;;;;;5053255;28;20210;-71
2023/09/08 02:47:20;;;;;;;14.17;7.23;;;12.40;99.90;;;;;;5052568;28;20198;-72
2023/09/08 02:49:45;;;;;;;13.10;7.00;;;12.40;99.90;;;;;;5052606;28;20309;-72
2023/09/08 02:52:11;;;;;;;10.27;6.37;;;12.30;99.90;;;;;;5053144;28;20195;-72
2023/09/08 02:54:36;;;;;;;9.97;6.27;;;12.30;99.90;;;;;;5051960;28;20222;-72
2023/09/08 02:57:02;;;;;;;11.53;6.47;;;12.30;99.90;;;;;;5052348;28;20195;-72
2023/09/08 02:59:28;;;;;;;9.80;6.37;;;12.30;99.90;;;;;;5053032;28;20188;-72
2023/09/08 03:01:53;;;;;;;12.17;6.20;;;12.30;99.90;;;;;;5053170;28;20178;-73
2023/09/08 03:04:19;;;;;;;11.40;5.57;;;12.30;99.90;;;;;;5053049;28;20636;-72
2023/09/08 03:06:44;;;;;;;8.67;5.77;;;12.30;99.90;;;;;;5052381;28;20561;-73
2023/09/08 03:09:10;;;;;;;9.07;5.57;;;12.30;99.90;;;;;;5051744;28;20187;-72
2023/09/08 03:11:37;;;;;;;11.10;5.57;;;12.30;99.90;;;;;;5052759;28;20183;-72
2023/09/08 03:14:02;;;;;;;11.67;5.70;;;12.20;99.90;;;;;;5052668;28;20226;-72
2023/09/08 03:16:28;;;;;;;11.33;5.93;;;12.20;99.90;;;;;;5052412;28;20211;-73
2023/09/08 03:18:53;;;;;;;9.50;5.23;;;12.10;99.90;;;;;;5051795;28;20254;-72
2023/09/08 03:21:19;;;;;;;10.53;5.47;;;12.10;99.90;;;;;;5052625;28;20266;-72
2023/09/08 03:23:45;;;;;;;12.73;6.77;;;12.00;99.90;;;;;;5052508;28;20215;-73
2023/09/08 03:26:11;;;;;;;11.83;5.90;;;12.00;99.90;;;;;;5052538;28;20202;-71
2023/09/08 03:28:38;;;;;;;10.37;5.83;;;11.90;99.90;;;;;;5051863;28;20571;-72
2023/09/08 03:31:04;;;;;;;11.73;5.83;;;11.90;99.90;;;;;;5052582;28;20171;-72
2023/09/08 03:33:30;;;;;;;9.30;5.87;;;11.90;99.90;;;;;;5052336;28;20667;-73
2023/09/08 03:35:56;;;;;;;8.43;5.70;;;11.90;99.90;;;;;;5052306;28;20230;-72
2023/09/08 03:38:22;;;;;;;13.00;6.50;;;11.90;99.90;;;;;;5050363;28;20206;-72
2023/09/08 03:40:48;;;;;;;10.40;6.43;;;11.80;99.90;;;;;;5052291;28;20182;-73
2023/09/08 03:43:14;;;;;;;12.17;6.20;;;11.80;99.90;;;;;;5052272;28;20180;-72
2023/09/08 03:45:39;;;;;;;13.30;6.20;;;11.90;99.90;;;;;;5052057;28;20329;-71
2023/09/08 03:48:05;;;;;;;9.73;5.93;;;11.90;99.90;;;;;;5051370;28;20183;-72
2023/09/08 03:50:31;;;;;;;10.90;5.53;;;11.90;99.90;;;;;;5052011;28;20175;-72
2023/09/08 03:52:57;;;;;;;14.83;5.77;;;11.90;99.90;;;;;;5052040;28;20183;-72
2023/09/08 03:55:22;;;;;;;13.07;6.10;;;11.80;99.90;;;;;;5051798;28;20233;-72
2023/09/08 03:57:48;;;;;;;12.43;5.50;;;11.80;99.90;;;;;;5051187;28;20198;-73
2023/09/08 04:00:20;;;;;;;13.47;6.37;;;11.70;99.90;;;;;;5051516;28;20703;-72
2023/09/08 04:02:46;;;;;;;12.33;5.90;;;11.70;99.90;;;;;;5051598;28;20164;-73
2023/09/08 04:05:11;;;;;;;9.57;5.83;;;11.70;99.90;;;;;;5051668;28;20203;-72
2023/09/08 04:07:37;;;;;;;11.57;5.80;;;11.60;99.90;;;;;;5051116;28;20183;-72
2023/09/08 04:10:03;;;;;;;12.13;6.53;;;11.70;99.90;;;;;;5051650;28;20175;-72
2023/09/08 04:12:29;;;;;;;11.93;6.00;;;11.60;99.90;;;;;;5051664;28;20180;-73
2023/09/08 04:14:54;;;;;;;12.53;6.33;;;11.60;99.90;;;;;;5051508;28;20740;-72
2023/09/08 04:17:20;;;;;;;13.73;6.53;;;11.60;99.90;;;;;;5050702;28;20222;-72
2023/09/08 04:19:45;;;;;;;10.17;5.60;;;11.50;99.90;;;;;;5051446;28;20175;-73
2023/09/08 04:22:11;;;;;;;12.13;6.50;;;11.60;99.90;;;;;;5051554;28;20233;-72
2023/09/08 04:24:37;;;;;;;10.13;6.00;;;11.60;99.90;;;;;;5050059;28;20375;-71
2023/09/08 04:27:03;;;;;;;9.57;5.83;;;11.60;99.90;;;;;;5050795;28;20261;-72
2023/09/08 04:29:29;;;;;;;13.00;5.90;;;11.50;99.90;;;;;;5048759;28;20609;-72
2023/09/08 04:31:54;;;;;;;10.13;6.13;;;11.50;99.90;;;;;;5051366;28;20199;-71
2023/09/08 04:34:20;;;;;;;12.30;5.67;;;11.50;99.90;;;;;;5051102;28;20266;-71
2023/09/08 04:36:45;;;;;;;9.87;5.87;;;11.50;99.90;;;;;;5049263;28;20578;-73
2023/09/08 04:39:11;;;;;;;10.80;5.53;;;11.50;99.90;;;;;;5049571;28;20262;-72
2023/09/08 04:41:37;;;;;;;9.33;5.80;;;11.50;99.90;;;;;;5051041;28;20163;-72
2023/09/08 04:44:03;;;;;;;9.00;5.40;;;11.40;99.90;;;;;;5051083;28;20662;-71
2023/09/08 04:46:29;;;;;;;9.87;5.70;;;11.40;99.90;;;;;;5051165;28;20183;-72
2023/09/08 04:48:54;;;;;;;12.90;6.53;;;11.30;99.90;;;;;;5049206;28;20179;-70
2023/09/08 04:51:20;;;;;;;11.63;5.83;;;11.30;99.90;;;;;;5051040;28;20202;-71
2023/09/08 04:53:46;;;;;;;9.07;5.53;;;11.30;99.90;;;;;;5069219;28;20205;-73
2023/09/08 04:56:13;;;;;;;12.27;6.80;;;11.30;99.90;;;;;;5070833;28;20209;-71
2023/09/08 04:58:38;;;;;;;8.73;5.70;;;11.30;99.90;;;;;;5069767;28;20174;-72
2023/09/08 05:01:05;;;;;;;12.00;7.00;;;11.20;99.90;;;;;;5069566;28;20178;-73
2023/09/08 05:03:31;;;;;;;11.50;6.10;;;11.30;99.90;;;;;;5069474;28;20175;-73
2023/09/08 05:05:56;;;;;;;9.77;6.40;;;11.30;99.90;;;;;;5061227;28;20252;-72
2023/09/08 05:08:22;;;;;;;10.33;5.93;;;11.30;99.90;;;;;;5049224;28;20183;-71
2023/09/08 05:10:47;;;;;;;10.37;5.90;;;11.40;99.90;;;;;;5049947;28;20575;-72
2023/09/08 05:13:13;;;;;;;11.00;6.27;;;11.40;99.90;;;;;;5049615;28;20206;-71
2023/09/08 05:15:39;;;;;;;17.07;6.17;;;11.40;99.90;;;;;;5048478;28;20203;-71
2023/09/08 05:18:05;;;;;;;12.17;5.60;;;11.40;99.90;;;;;;5049334;28;20215;-72
2023/09/08 05:20:30;;;;;;;9.43;5.50;;;11.40;99.90;;;;;;5049819;28;20233;-72
2023/09/08 05:22:56;;;;;;;11.23;6.30;;;11.40;99.90;;;;;;5049707;28;20668;-71
2023/09/08 05:25:21;;;;;;;9.13;6.17;;;11.40;99.90;;;;;;5049530;28;20376;-71
2023/09/08 05:27:48;;;;;;;9.37;5.50;;;11.40;99.90;;;;;;5047883;28;20179;-73
2023/09/08 05:30:14;;;;;;;9.03;5.50;;;11.50;99.90;;;;;;5049724;28;20484;-71
2023/09/08 05:32:39;;;;;;;8.37;5.33;;;11.40;99.90;;;;;;5048222;28;20182;-72
2023/09/08 05:35:05;;;;;;;9.67;5.10;;;11.50;99.90;;;;;;5049678;28;20194;-72
2023/09/08 05:37:31;;;;;;;11.87;6.33;;;11.50;99.90;;;;;;5048983;28;20715;-72
2023/09/08 05:39:56;;;;;;;12.87;5.53;;;11.50;99.90;;;;;;5049413;28;20673;-72
2023/09/08 05:42:22;;;;;;;9.87;5.53;;;11.60;99.90;;;;;;5049575;28;20210;-71
2023/09/08 05:44:48;;;;;;;10.87;6.37;;;11.70;99.90;;;;;;5049427;28;20210;-72
2023/09/08 05:47:13;;;;;;;12.53;7.00;;;11.80;99.90;;;;;;5048950;28;20179;-71
2023/09/08 05:49:39;;;;;;;20.57;6.50;;;11.80;99.90;;;;;;5051177;28;20211;-72
2023/09/08 05:52:05;;;;;;;16.40;6.53;;;11.80;99.90;;;;;;5069486;28;20489;-71
2023/09/08 05:54:30;;;;;;;18.63;6.70;;;11.80;99.90;;;;;;5069312;28;20260;-71
2023/09/08 05:56:56;;;;;;;14.80;6.27;;;11.80;99.90;;;;;;5068951;28;20264;-72
2023/09/08 05:59:21;;;;;;;17.77;6.40;;;11.80;99.90;;;;;;5069550;28;20174;-71
2023/09/08 06:01:47;;;;;;;21.67;6.80;;;11.90;99.90;;;;;;5067819;28;20182;-73
2023/09/08 06:04:13;;;;;;;13.53;6.40;;;12.10;99.90;;;;;;5069681;28;20266;-71
2023/09/08 06:06:38;;;;;;;14.23;7.10;;;12.30;99.90;;;;;;5069283;28;20200;-72
2023/09/08 06:09:07;;;;;;;13.53;6.50;;;12.50;99.90;;;;;;5069142;28;20187;-72
2023/09/08 06:11:33;;;;;;;14.20;7.00;;;12.80;99.90;;;;;;5068117;28;20182;-73
2023/09/08 06:13:59;;;;;;;12.23;6.10;;;13.00;99.90;;;;;;5069313;28;20186;-72
2023/09/08 06:16:25;;;;;;;16.57;6.87;;;13.10;99.90;;;;;;5069092;28;20568;-72
2023/09/08 06:18:51;;;;;;;12.73;6.50;;;13.10;99.90;;;;;;5067464;28;20179;-72
2023/09/08 06:21:16;;;;;;;12.23;6.13;;;13.20;99.90;;;;;;5069241;28;20636;-72
2023/09/08 06:23:42;;;;;;;12.80;6.90;;;13.10;99.90;;;;;;5069167;28;20623;-72
2023/09/08 06:26:07;;;;;;;14.77;7.27;;;13.10;99.90;;;;;;5072984;28;20199;-72
2023/09/08 06:28:33;;;;;;;10.73;6.00;;;13.00;99.90;;;;;;5072189;28;20189;-74
2023/09/08 06:30:59;;;;;;;11.80;6.80;;;13.10;99.90;;;;;;5072975;28;20232;-72
2023/09/08 06:33:24;;;;;;;16.07;6.73;;;13.20;99.90;;;;;;5072588;28;20268;-71
2023/09/08 06:35:50;;;;;;;10.20;6.50;;;13.30;99.90;;;;;;5072550;28;20225;-72
2023/09/08 06:38:16;;;;;;;15.10;6.43;;;13.40;99.90;;;;;;5072017;28;20197;-72
2023/09/08 06:40:42;;;;;;;11.07;6.47;;;13.70;99.90;;;;;;5072948;28;20182;-73
2023/09/08 06:43:07;;;;;;;12.50;6.90;;;14.00;99.90;;;;;;5072545;28;20181;-73
2023/09/08 06:45:33;;;;;;;12.47;6.63;;;14.30;99.90;;;;;;5071607;28;20535;-73
2023/09/08 06:47:59;;;;;;;14.33;7.23;;;14.40;99.90;;;;;;5061242;28;20273;-72
2023/09/08 06:50:26;;;;;;;13.20;6.87;;;14.60;99.90;;;;;;5073309;28;20273;-72
2023/09/08 06:52:52;;;;;;;16.33;6.87;;;15.00;99.90;;;;;;5082228;28;20205;-71
2023/09/08 06:55:18;;;;;;;15.00;7.50;;;15.30;99.90;;;;;;5091923;28;20212;-72
2023/09/08 06:57:44;;;;;;;15.90;7.70;;;15.80;99.90;;;;;;5090877;28;20193;-73
2023/09/08 07:00:13;;;;;;;11.40;6.20;;;16.20;99.90;;;;;;5092213;28;20718;-73
2023/09/08 07:02:39;;;;;;;17.27;9.03;;;16.40;99.90;;;;;;5091585;28;20551;-73
2023/09/08 07:05:07;;;;;;;18.70;7.07;;;16.70;99.90;;;;;;5092517;28;20205;-73
2023/09/08 07:07:37;;;;;;;14.47;6.80;;;17.20;99.90;;;;;;5090783;28;20193;-72
2023/09/08 07:10:06;;;;;;;12.60;6.73;;;17.10;99.90;;;;;;5084118;28;20182;-74
2023/09/08 07:12:31;;;;;;;17.50;6.57;;;17.00;99.90;;;;;;5071731;28;20639;-73
2023/09/08 07:14:57;;;;;;;15.70;6.43;;;17.00;99.90;;;;;;5071424;28;20285;-73
2023/09/08 07:17:23;;;;;;;11.73;6.33;;;17.10;99.90;;;;;;5070840;28;20206;-73
2023/09/08 07:19:49;;;;;;;9.50;6.07;;;17.30;99.90;;;;;;5071491;28;20220;-73
2023/09/08 07:22:15;;;;;;;11.67;6.70;;;17.80;99.90;;;;;;5071506;28;20213;-72
2023/09/08 07:24:41;;;;;;;12.77;6.10;;;18.10;99.90;;;;;;5075175;28;20198;-73
2023/09/08 07:27:07;;;;;;;10.33;6.30;;;18.50;99.90;;;;;;5090687;28;20189;-73
2023/09/08 07:29:33;;;;;;;14.33;8.07;;;19.00;99.90;;;;;;5090898;28;20192;-74
2023/09/08 07:31:59;;;;;;;13.23;7.70;;;19.50;99.90;;;;;;5091326;28;20190;-74
2023/09/08 07:34:25;;;;;;;10.67;6.43;;;19.90;99.90;;;;;;5090771;28;20221;-72
2023/09/08 07:36:50;;;;;;;10.67;5.17;;;20.40;99.90;;;;;;5090593;28;20240;-72
2023/09/08 07:39:16;;;;;;;9.40;5.80;;;20.80;99.90;;;;;;5088955;28;20323;-73
2023/09/08 07:41:41;;;;;;;9.13;5.73;;;21.20;99.90;;;;;;5071017;28;20640;-73
2023/09/08 07:44:07;;;;;;;10.30;5.37;;;21.60;99.90;;;;;;5070921;28;20187;-72
2023/09/08 07:46:33;;;;;;;9.30;4.93;;;22.00;99.90;;;;;;5070008;28;20428;-72
2023/09/08 07:48:59;;;;;;;13.53;5.30;;;22.40;99.90;;;;;;5070049;28;20200;-73
2023/09/08 07:51:26;;;;;;;13.17;5.90;;;22.80;99.90;;;;;;5068043;28;20850;-72
2023/09/08 07:53:53;;;;;;;10.90;5.20;;;23.00;99.90;;;;;;5070294;28;20475;-72
2023/09/08 07:56:19;;;;;;;10.57;5.03;;;23.40;99.90;;;;;;5088175;28;20212;-73
2023/09/08 07:58:44;;;;;;;11.50;4.90;;;23.80;99.90;;;;;;5064913;28;20187;-73
2023/09/08 08:01:10;;;;;;;8.87;5.20;;;24.20;99.90;;;;;;5068499;28;20198;-73
2023/09/08 08:03:36;;;;;;;8.97;4.80;;;24.50;99.90;;;;;;5090069;28;20238;-72
2023/09/08 08:06:01;;;;;;;8.47;4.63;;;24.80;99.90;;;;;;5087357;28;20460;-73
2023/09/08 08:08:27;;;;;;;8.60;4.87;;;25.20;99.90;;;;;;5066759;28;20243;-73
2023/09/08 08:10:53;;;;;;;8.10;4.90;;;25.50;99.90;;;;;;5090121;28;20235;-72
2023/09/08 08:13:18;;;;;;;11.83;4.80;;;25.90;99.90;;;;;;5090556;28;20189;-73
2023/09/08 08:15:47;;;;;;;9.17;4.93;;;26.20;99.90;;;;;;5089931;28;20206;-74
2023/09/08 08:18:12;;;;;;;7.70;4.57;;;26.50;99.90;;;;;;5089582;28;20205;-73
2023/09/08 08:20:38;;;;;;;8.90;4.60;;;26.80;99.90;;;;;;5090055;28;20585;-73
2023/09/08 08:23:05;;;;;;;11.80;4.43;;;27.40;99.90;;;;;;5087449;28;20192;-75
2023/09/08 08:25:31;;;;;;;8.93;4.70;;;28.00;99.90;;;;;;5063357;28;20224;-74
2023/09/08 08:27:58;;;;;;;8.07;4.40;;;28.60;99.90;;;;;;5073317;28;20186;-74
2023/09/08 08:30:24;;;;;;;7.83;4.67;;;28.80;99.90;;;;;;5090473;28;20678;-73
2023/09/08 08:32:51;;;;;;;9.90;3.77;;;29.20;99.90;;;;;;5089619;28;20190;-74
2023/09/08 08:35:17;;;;;;;9.10;4.03;;;29.50;99.90;;;;;;5090114;28;20288;-74
2023/09/08 08:37:43;;;;;;;8.27;3.97;;;29.80;99.90;;;;;;5089084;28;20206;-73
2023/09/08 08:40:12;;;;;;;9.80;4.47;;;30.10;99.90;;;;;;5090044;28;20631;-75
2023/09/08 08:42:38;;;;;;;11.02;3.92;;;30.20;99.90;;;;;;5089600;28;20273;-74
2023/09/08 08:45:04;;;;;;;10.90;4.53;;;30.30;99.90;;;;;;5088448;28;20804;-74
2023/09/08 08:47:30;;;;;;;6.97;4.25;;;30.30;99.90;;;;;;5088611;28;20265;-74
2023/09/08 08:50:01;;;;;;;7.03;4.13;;;30.50;99.90;;;;;;5081072;28;20269;-74
2023/09/08 08:52:28;;;;;;;8.23;4.00;;;30.50;99.90;;;;;;5069431;28;20192;-74
2023/09/08 08:54:54;;;;;;;9.13;4.15;;;30.80;99.90;;;;;;5069625;28;20203;-73
2023/09/08 08:57:23;;;;;;;7.63;4.40;;;31.00;99.90;;;;;;5069105;28;20194;-73
2023/09/08 08:59:51;;;;;;;8.75;4.10;;;30.70;99.90;;;;;;5086718;28;20174;-73
2023/09/08 09:02:17;;;;;;;10.30;4.18;;;30.30;99.90;;;;;;5089516;28;20587;-73
2023/09/08 09:04:43;;;;;;;9.13;4.30;;;30.50;99.90;;;;;;5072956;28;20258;-74
2023/09/08 09:07:10;;;;;;;12.57;3.92;;;30.80;99.90;;;;;;5068787;28;20192;-77
2023/09/08 09:09:35;;;;;;;13.73;5.10;;;31.10;99.90;;;;;;5069602;28;20193;-74
2023/09/08 09:12:02;;;;;;;11.55;4.90;;;31.00;99.90;;;;;;5070100;28;20184;-73
2023/09/08 09:14:31;;;;;;;12.95;3.75;;;31.30;99.90;;;;;;5086243;28;20212;-74
2023/09/08 09:16:57;;;;;;;15.23;4.80;;;31.20;99.90;;;;;;5088792;28;20208;-74
2023/09/08 09:19:31;;;;;;;8.77;4.45;;;31.60;99.90;;;;;;5086561;28;20195;-73
2023/09/08 09:21:57;;;;;;;7.32;4.43;;;31.50;99.90;;;;;;5069445;28;20617;-74
2023/09/08 09:24:31;;;;;;;10.98;4.80;;;31.10;99.90;;;;;;5068912;28;20179;-73
2023/09/08 09:26:57;;;;;;;14.55;6.57;;;31.20;99.90;;;;;;5088832;28;20231;-72
2023/09/08 09:29:22;;;;;;;19.65;11.35;;;31.00;99.90;;;;;;5089171;28;20554;-73
2023/09/08 09:31:52;;;;;;;6.22;4.13;;;30.40;99.90;;;;;;5080526;28;20602;-73
2023/09/08 09:34:18;;;;;;;10.40;4.20;;;30.30;99.90;;;;;;5069731;28;20175;-73
2023/09/08 09:36:45;;;;;;;7.63;4.37;;;30.10;99.90;;;;;;5088715;28;20634;-71
2023/09/08 09:39:12;;;;;;;11.20;4.50;;;30.20;99.90;;;;;;5088795;28;20205;-74
2023/09/08 09:41:37;;;;;;;8.15;4.03;;;30.50;99.90;;;;;;5069201;28;20280;-73
2023/09/08 09:44:03;;;;;;;6.00;4.00;;;30.70;99.90;;;;;;5069642;28;20273;-73
2023/09/08 09:46:29;;;;;;;11.13;5.65;;;31.00;99.90;;;;;;5073266;28;20174;-73
2023/09/08 09:48:56;;;;;;;8.02;3.95;;;31.20;99.90;;;;;;5072456;28;20179;-72
2023/09/08 09:51:22;;;;;;;7.13;4.70;;;31.60;99.90;;;;;;5058307;28;20187;-72
2023/09/08 09:53:50;;;;;;;8.25;4.25;;;31.70;99.90;;;;;;5063421;28;20181;-74
2023/09/08 09:56:17;;;;;;;9.80;4.10;;;32.20;99.90;;;;;;5061266;28;20668;-74
2023/09/08 09:58:44;;;;;;;6.55;4.30;;;32.30;99.90;;;;;;5067534;28;20191;-74
2023/09/08 10:01:11;;;;;;;8.00;4.05;;;32.10;99.90;;;;;;5073109;28;20172;-73
2023/09/08 10:03:40;;;;;;;7.10;3.80;;;32.00;99.90;;;;;;5072864;28;20188;-75
2023/09/08 10:06:06;;;;;;;6.88;3.72;;;32.30;99.90;;;;;;5078268;28;20195;-73
2023/09/08 10:08:36;;;;;;;9.45;4.00;;;32.10;99.90;;;;;;5091872;28;20207;-75
2023/09/08 10:11:06;;;;;;;7.07;4.18;;;32.20;99.90;;;;;;5059456;28;20173;-75
2023/09/08 10:13:38;;;;;;;7.55;4.13;;;32.50;99.90;;;;;;5070917;28;20648;-75
2023/09/08 10:16:05;;;;;;;6.28;3.50;;;32.60;99.90;;;;;;5066455;28;20220;-75
2023/09/08 10:18:33;;;;;;;6.90;4.00;;;32.80;99.90;;;;;;5092055;28;20233;-76
2023/09/08 10:21:04;;;;;;;5.35;3.80;;;33.10;99.90;;;;;;5092240;28;20209;-75
2023/09/08 10:23:36;;;;;;;6.03;3.90;;;32.80;99.90;;;;;;5092489;28;20205;-75
2023/09/08 10:26:05;;;;;;;10.18;4.07;;;32.60;99.90;;;;;;5092527;28;20224;-75
2023/09/08 10:28:33;;;;;;;7.38;3.92;;;32.40;99.90;;;;;;5091593;28;20196;-75
2023/09/08 10:30:59;;;;;;;8.10;4.03;;;32.40;99.90;;;;;;5092463;28;20181;-75
2023/09/08 10:33:26;;;;;;;5.30;3.50;;;32.60;99.90;;;;;;5092369;28;20232;-75
2023/09/08 10:35:52;;;;;;;10.88;3.83;;;32.60;99.90;;;;;;5070443;28;20967;-76
2023/09/08 10:38:29;;;;;;;5.07;3.70;;;32.50;99.90;;;;;;5071520;28;20217;-75
2023/09/08 10:41:16;;;;;;;5.38;3.78;;;32.60;99.90;;;;;;5072365;28;20210;-74
2023/09/08 10:44:02;;;;;;;6.13;4.03;;;32.50;99.90;;;;;;5072054;28;20171;-76
2023/09/08 10:46:30;;;;;;;9.25;4.00;;;32.90;99.90;;;;;;5072258;28;20193;-75
2023/09/08 10:49:06;;;;;;;10.55;3.72;;;32.70;99.90;;;;;;5071567;28;20551;-75
2023/09/08 10:51:34;;;;;;;5.15;3.33;;;32.70;99.90;;;;;;5072026;28;20655;-75
2023/09/08 10:54:00;;;;;;;5.93;3.72;;;33.00;99.90;;;;;;5087479;28;20450;-75
2023/09/08 10:56:50;;;;;;;7.43;3.70;;;33.00;99.90;;;;;;5091537;28;20232;-77
2023/09/08 10:59:16;;;;;;;6.78;3.65;;;33.00;99.90;;;;;;5091580;28;20185;-75
2023/09/08 11:01:42;;;;;;;5.95;3.70;;;33.30;99.90;;;;;;5091842;28;20278;-75
2023/09/08 11:04:10;;;;;;;4.75;3.50;;;33.10;99.90;;;;;;5091466;28;20288;-75
2023/09/08 11:06:36;;;;;;;6.38;3.30;;;32.90;99.90;;;;;;5093167;28;20187;-76
2023/09/08 11:09:09;;;;;;;5.50;3.50;;;32.60;99.90;;;;;;5089725;28;20189;-76
2023/09/08 11:11:36;;;;;;;4.70;3.45;;;32.30;99.90;;;;;;5091217;28;20170;-76
2023/09/08 11:14:03;;;;;;;4.60;3.60;;;32.30;99.90;;;;;;5093079;28;20184;-73
2023/09/08 11:16:31;;;;;;;6.55;3.70;;;32.10;99.90;;;;;;5092216;28;20755;-75
2023/09/08 11:18:57;;;;;;;7.95;4.10;;;31.70;99.90;;;;;;5091726;28;20186;-75
2023/09/08 11:21:22;;;;;;;11.88;4.63;;;31.70;99.90;;;;;;5090904;28;20269;-72
2023/09/08 11:23:48;;;;;;;6.40;3.42;;;31.80;99.90;;;;;;5091172;28;20183;-77
2023/09/08 11:26:13;;;;;;;5.85;3.78;;;31.90;99.90;;;;;;5080706;28;20195;-75
2023/09/08 11:28:41;;;;;;;5.25;3.72;;;32.00;99.90;;;;;;5070792;28;20239;-75
2023/09/08 11:31:07;;;;;;;10.32;3.58;;;31.90;99.90;;;;;;5071295;28;20194;-75
2023/09/08 11:33:38;;;;;;;6.15;3.50;;;31.80;99.90;;;;;;5071109;28;20784;-75
2023/09/08 11:36:12;;;;;;;6.63;3.45;;;31.80;99.90;;;;;;5068000;28;20217;-75
2023/09/08 11:38:38;;;;;;;6.40;3.63;;;31.50;99.90;;;;;;5068642;28;20201;-76
2023/09/08 11:41:04;;;;;;;27.52;12.93;;;31.80;99.90;;;;;;5071120;28;20180;-72
2023/09/08 11:43:32;;;;;;;7.28;3.72;;;31.90;99.90;;;;;;5073623;28;20186;-75
2023/09/08 11:45:59;;;;;;;5.55;3.63;;;31.90;99.90;;;;;;5089105;28;20229;-74
2023/09/08 11:48:25;;;;;;;8.85;3.45;;;32.20;99.90;;;;;;5089288;28;20228;-74
2023/09/08 11:50:53;;;;;;;5.20;3.47;;;32.10;99.90;;;;;;5087057;28;20663;-75
2023/09/08 11:53:20;;;;;;;6.65;3.60;;;32.10;99.90;;;;;;5085858;28;20215;-75
2023/09/08 11:55:47;;;;;;;4.57;3.28;;;32.30;99.90;;;;;;5090172;28;20240;-76
2023/09/08 11:58:13;;;;;;;6.70;3.22;;;32.30;99.90;;;;;;5087896;28;20279;-75
2023/09/08 12:00:40;;;;;;;4.47;3.22;;;32.30;99.90;;;;;;5090995;28;20173;-75
2023/09/08 12:03:15;;;;;;;5.82;3.75;;;32.50;99.90;;;;;;5090570;28;20197;-75
2023/09/08 12:05:42;;;;;;;8.18;3.53;;;32.50;99.90;;;;;;5089399;28;20683;-75
2023/09/08 12:08:07;;;;;;;7.72;3.35;;;32.50;99.90;;;;;;5089461;28;20773;-74
2023/09/08 12:10:41;;;;;;;9.25;3.80;;;32.40;99.90;;;;;;5090540;28;20260;-75
2023/09/08 12:13:07;;;;;;;7.43;3.72;;;32.40;99.90;;;;;;5089953;28;20198;-75
2023/09/08 12:15:36;;;;;;;7.28;3.92;;;32.30;99.90;;;;;;5090774;28;20206;-75
2023/09/08 12:18:07;;;;;;;7.57;3.35;;;32.00;99.90;;;;;;5074009;28;20301;-75
2023/09/08 12:20:34;;;;;;;6.38;3.50;;;32.00;99.90;;;;;;5070628;28;20265;-75
2023/09/08 12:23:02;;;;;;;4.60;3.30;;;32.10;99.90;;;;;;5069539;28;20178;-75
2023/09/08 12:25:28;;;;;;;5.07;3.45;;;32.30;99.90;;;;;;5070197;28;20206;-74
2023/09/08 12:27:54;;;;;;;5.82;3.30;;;32.50;99.90;;;;;;5069497;28;20223;-74
2023/09/08 12:30:32;;;;;;;5.65;3.53;;;32.60;99.90;;;;;;5089686;28;20206;-75
2023/09/08 12:32:59;;;;;;;8.02;3.42;;;32.70;99.90;;;;;;5089712;28;20192;-74
2023/09/08 12:35:25;;;;;;;5.75;3.55;;;32.70;99.90;;;;;;5090231;28;20206;-75
2023/09/08 12:38:01;;;;;;;9.23;3.92;;;32.70;99.90;;;;;;5089015;28;20589;-76